createdAt,value
2023-03-21T00:01:55.224Z,3.27
2023-03-21T00:04:23.919Z,3.17
2023-03-21T00:06:51.251Z,3.20
2023-03-21T00:09:18.452Z,3.60
2023-03-21T00:11:46.530Z,3.30
2023-03-21T00:14:14.583Z,3.83
2023-03-21T00:16:42.136Z,3.00
2023-03-21T00:19:10.475Z,2.90
2023-03-21T00:21:49.033Z,3.27
2023-03-21T00:24:19.323Z,3.03
2023-03-21T00:26:46.424Z,3.47
2023-03-21T00:29:13.531Z,3.30
2023-03-21T00:31:40.598Z,3.70
2023-03-21T00:34:07.712Z,3.53
2023-03-21T00:36:35.048Z,3.90
2023-03-21T00:39:02.188Z,4.20
2023-03-21T00:41:41.922Z,3.83
2023-03-21T00:44:13.909Z,3.77
2023-03-21T00:46:49.288Z,3.57
2023-03-21T00:49:21.690Z,3.57
2023-03-21T00:51:52.015Z,3.67
2023-03-21T00:54:19.689Z,3.43
2023-03-21T00:56:46.777Z,3.60
2023-03-21T00:59:14.017Z,3.60
2023-03-21T01:01:41.171Z,3.27
2023-03-21T01:04:13.697Z,3.40
2023-03-21T01:06:44.497Z,3.60
2023-03-21T01:09:19.632Z,3.33
2023-03-21T01:11:47.082Z,3.80
2023-03-21T01:14:22.641Z,3.27
2023-03-21T01:16:54.189Z,3.37
2023-03-21T01:19:37.627Z,3.47
2023-03-21T01:22:12.224Z,3.30
2023-03-21T01:24:50.242Z,3.13
2023-03-21T01:27:19.489Z,3.23
2023-03-21T01:29:48.667Z,3.03
2023-03-21T01:32:15.710Z,3.40
2023-03-21T01:34:42.847Z,3.47
2023-03-21T01:37:09.953Z,3.40
2023-03-21T01:39:44.402Z,3.57
2023-03-21T01:42:15.623Z,3.47
2023-03-21T01:45:00.604Z,3.30
2023-03-21T01:47:46.827Z,3.67
2023-03-21T01:50:27.123Z,3.17
2023-03-21T01:53:15.486Z,2.93
2023-03-21T01:55:43.103Z,3.17
2023-03-21T01:58:28.218Z,2.93
2023-03-21T02:01:04.857Z,3.13
2023-03-21T02:03:50.680Z,3.10
2023-03-21T02:07:02.511Z,3.10
2023-03-21T02:09:37.541Z,3.07
2023-03-21T02:12:11.761Z,3.20
2023-03-21T02:14:39.526Z,2.90
2023-03-21T02:17:39.315Z,3.10
2023-03-21T02:20:26.607Z,3.10
2023-03-21T02:23:07.620Z,3.07
2023-03-21T02:25:53.140Z,2.90
2023-03-21T02:28:56.483Z,2.83
2023-03-21T02:31:42.079Z,2.80
2023-03-21T02:34:19.307Z,2.63
2023-03-21T02:37:08.593Z,3.27
2023-03-21T02:40:20.345Z,2.97
2023-03-21T02:43:37.280Z,3.10
2023-03-21T02:46:15.090Z,2.97
2023-03-21T02:49:11.520Z,3.10
2023-03-21T02:51:42.579Z,3.20
2023-03-21T02:54:38.398Z,2.60
2023-03-21T02:57:06.902Z,3.00
2023-03-21T02:59:39.420Z,2.80
2023-03-21T03:02:17.684Z,2.63
2023-03-21T03:04:46.067Z,2.73
2023-03-21T03:07:19.032Z,3.17
2023-03-21T03:10:01.458Z,3.13
2023-03-21T03:12:57.492Z,2.70
2023-03-21T03:16:03.267Z,2.83
2023-03-21T03:18:45.848Z,3.00
2023-03-21T03:21:39.078Z,2.80
2023-03-21T03:24:14.251Z,2.80
2023-03-21T03:26:51.654Z,2.77
2023-03-21T03:29:22.156Z,2.50
2023-03-21T03:31:56.936Z,2.80
2023-03-21T03:34:33.163Z,2.93
2023-03-21T03:37:07.064Z,3.00
2023-03-21T03:40:08.349Z,3.30
2023-03-21T03:42:43.535Z,3.07
2023-03-21T03:45:24.222Z,3.07
2023-03-21T03:48:12.941Z,2.97
2023-03-21T03:51:03.552Z,2.97
2023-03-21T03:53:58.935Z,3.40
2023-03-21T03:56:29.707Z,2.97
2023-03-21T03:58:58.167Z,2.73
2023-03-21T04:01:42.061Z,3.00
2023-03-21T04:04:13.161Z,2.90
2023-03-21T04:06:42.194Z,2.93
2023-03-21T04:09:19.278Z,2.93
2023-03-21T04:11:48.539Z,3.30
2023-03-21T04:14:15.871Z,2.70
2023-03-21T04:16:44.309Z,2.57
2023-03-21T04:19:11.429Z,2.77
2023-03-21T04:21:39.466Z,2.90
2023-03-21T04:24:07.546Z,2.93
2023-03-21T04:26:35.974Z,2.70
2023-03-21T04:29:37.231Z,2.67
2023-03-21T04:32:27.766Z,2.97
2023-03-21T04:35:08.421Z,2.77
2023-03-21T04:37:36.183Z,3.20
2023-03-21T04:40:07.595Z,2.90
2023-03-21T04:42:35.953Z,2.60
2023-03-21T04:50:18.037Z,3.00
2023-03-21T04:52:45.528Z,3.13
2023-03-21T04:55:12.509Z,2.93
2023-03-21T04:57:39.609Z,3.13
2023-03-21T05:00:11.267Z,3.23
2023-03-21T05:02:42.138Z,2.90
2023-03-21T05:05:11.399Z,2.97
2023-03-21T05:07:40.288Z,2.90
2023-03-21T05:10:09.671Z,3.17
2023-03-21T05:12:39.142Z,3.00
2023-03-21T05:15:07.152Z,3.30
2023-03-21T05:17:34.295Z,3.10
2023-03-21T05:20:01.860Z,3.30
2023-03-21T05:22:29.172Z,3.20
2023-03-21T05:24:57.357Z,3.10
2023-03-21T05:27:45.392Z,3.00
2023-03-21T05:30:17.409Z,2.90
2023-03-21T05:32:47.022Z,3.13
2023-03-21T05:35:14.371Z,3.20
2023-03-21T05:37:41.889Z,3.37
2023-03-21T05:40:09.748Z,2.90
2023-03-21T05:42:39.413Z,2.93
2023-03-21T05:45:16.286Z,2.97
2023-03-21T05:47:43.596Z,3.13
2023-03-21T05:50:13.499Z,3.13
2023-03-21T05:52:43.954Z,2.97
2023-03-21T05:55:14.112Z,3.03
2023-03-21T05:57:42.494Z,3.17
2023-03-21T06:00:24.847Z,3.30
2023-03-21T06:03:09.899Z,3.30
2023-03-21T06:05:48.780Z,3.13
2023-03-21T06:08:21.595Z,2.97
2023-03-21T06:10:48.584Z,3.23
2023-03-21T06:13:16.157Z,2.93
2023-03-21T06:15:43.368Z,3.20
2023-03-21T06:18:17.694Z,3.27
2023-03-21T06:21:10.986Z,3.10
2023-03-21T06:23:40.392Z,3.50
2023-03-21T06:26:07.870Z,2.90
2023-03-21T06:28:36.541Z,3.07
2023-03-21T06:31:03.798Z,3.67
2023-03-21T06:33:32.133Z,3.30
2023-03-21T06:35:59.493Z,3.20
2023-03-21T06:38:27.181Z,3.30
2023-03-21T06:40:54.505Z,3.30
2023-03-21T06:43:24.062Z,2.80
2023-03-21T06:45:51.192Z,3.43
2023-03-21T06:48:18.429Z,3.20
2023-03-21T06:50:52.766Z,3.30
2023-03-21T06:53:25.126Z,3.30
2023-03-21T06:56:15.057Z,3.13
2023-03-21T06:58:43.425Z,3.60
2023-03-21T07:01:18.507Z,3.50
2023-03-21T07:03:57.587Z,3.47
2023-03-21T07:06:28.638Z,3.30
2023-03-21T07:08:56.338Z,3.17
2023-03-21T07:11:24.972Z,3.70
2023-03-21T07:13:52.132Z,3.70
2023-03-21T07:16:21.667Z,3.30
2023-03-21T07:18:49.009Z,3.27
2023-03-21T07:21:15.997Z,3.67
2023-03-21T07:23:43.256Z,3.57
2023-03-21T07:26:10.503Z,3.60
2023-03-21T07:28:37.602Z,3.30
2023-03-21T07:31:07.095Z,3.80
2023-03-21T07:33:34.548Z,3.90
2023-03-21T07:36:02.669Z,3.23
2023-03-21T07:38:31.235Z,3.50
2023-03-21T07:41:00.787Z,3.10
2023-03-21T07:43:31.213Z,3.30
2023-03-21T07:46:00.036Z,3.60
2023-03-21T07:48:28.018Z,3.67
2023-03-21T07:50:55.325Z,3.40
2023-03-21T07:53:22.388Z,3.20
2023-03-21T07:55:55.678Z,3.43
2023-03-21T07:58:26.436Z,3.23
2023-03-21T08:00:53.618Z,3.43
2023-03-21T08:03:21.317Z,3.70
2023-03-21T08:05:48.346Z,3.63
2023-03-21T08:08:15.313Z,3.13
2023-03-21T08:10:45.726Z,3.23
2023-03-21T08:13:13.519Z,3.37
2023-03-21T08:15:42.406Z,3.00
2023-03-21T08:18:10.625Z,3.40
2023-03-21T08:20:38.055Z,3.20
2023-03-21T08:23:05.002Z,3.03
2023-03-21T08:25:32.783Z,3.00
2023-03-21T08:28:00.103Z,2.67
2023-03-21T08:30:28.711Z,2.57
2023-03-21T08:33:01.311Z,3.10
2023-03-21T08:35:29.723Z,2.70
2023-03-21T08:37:57.321Z,3.20
2023-03-21T08:40:24.319Z,2.80
2023-03-21T08:42:51.384Z,2.80
2023-03-21T08:45:18.735Z,2.70
2023-03-21T08:47:46.868Z,2.73
2023-03-21T08:50:18.373Z,2.77
2023-03-21T08:52:45.555Z,2.80
2023-03-21T08:55:14.514Z,2.60
2023-03-21T08:57:42.217Z,2.80
2023-03-21T09:00:14.950Z,2.07
2023-03-21T09:02:42.939Z,2.87
2023-03-21T09:05:14.520Z,2.90
2023-03-21T09:07:42.061Z,2.80
2023-03-21T09:10:20.583Z,2.63
2023-03-21T09:12:52.863Z,3.07
2023-03-21T09:15:21.806Z,3.13
2023-03-21T09:17:53.192Z,2.30
2023-03-21T09:20:26.338Z,2.60
2023-03-21T09:22:53.909Z,2.67
2023-03-21T09:25:21.636Z,2.60
2023-03-21T09:27:48.815Z,2.37
2023-03-21T09:30:21.649Z,2.50
2023-03-21T09:32:50.722Z,2.23
2023-03-21T09:35:19.231Z,2.63
2023-03-21T09:37:48.335Z,2.33
2023-03-21T09:40:52.731Z,2.33
2023-03-21T09:43:54.475Z,2.30
2023-03-21T09:46:44.701Z,2.20
2023-03-21T09:49:43.630Z,2.73
2023-03-21T09:52:22.377Z,2.50
2023-03-21T09:54:49.945Z,2.60
2023-03-21T09:57:24.935Z,2.03
2023-03-21T09:59:54.861Z,2.40
2023-03-21T10:02:38.616Z,2.33
2023-03-21T10:05:18.199Z,2.80
2023-03-21T10:08:04.752Z,2.30
2023-03-21T10:10:43.801Z,2.30
2023-03-21T10:13:32.464Z,2.27
2023-03-21T10:16:02.804Z,2.40
2023-03-21T10:18:31.465Z,2.13
2023-03-21T10:20:58.661Z,2.23
2023-03-21T10:23:29.293Z,2.37
2023-03-21T10:25:59.905Z,2.47
2023-03-21T10:28:50.023Z,2.30
2023-03-21T10:31:26.142Z,2.50
2023-03-21T10:33:56.307Z,2.40
2023-03-21T10:36:31.351Z,2.50
2023-03-21T10:39:16.148Z,2.40
2023-03-21T10:41:43.631Z,2.87
2023-03-21T10:44:14.751Z,2.27
2023-03-21T10:46:57.142Z,2.53
2023-03-21T10:49:26.755Z,2.50
2023-03-21T10:51:58.057Z,2.67
2023-03-21T10:54:31.292Z,2.27
2023-03-21T10:57:01.087Z,2.47
2023-03-21T10:59:34.742Z,2.40
2023-03-21T11:02:04.698Z,2.47
2023-03-21T11:04:32.184Z,2.30
2023-03-21T11:07:03.324Z,2.20
2023-03-21T11:10:14.588Z,2.70
2023-03-21T11:12:48.676Z,2.33
2023-03-21T11:15:40.667Z,2.20
2023-03-21T11:18:18.517Z,2.37
2023-03-21T11:20:54.663Z,2.00
2023-03-21T11:23:26.095Z,2.60
2023-03-21T11:25:53.427Z,2.13
2023-03-21T11:28:24.113Z,1.57
2023-03-21T11:30:52.262Z,2.50
2023-03-21T11:33:20.802Z,2.50
2023-03-21T11:36:01.988Z,2.67
2023-03-21T11:38:39.506Z,2.27
2023-03-21T11:41:07.989Z,2.27
2023-03-21T11:43:38.569Z,2.20
2023-03-21T11:46:09.759Z,2.40
2023-03-21T11:48:41.959Z,1.93
2023-03-21T11:51:57.312Z,2.20
2023-03-21T11:54:35.964Z,1.87
2023-03-21T11:57:23.928Z,2.07
2023-03-21T11:59:50.959Z,2.00
2023-03-21T12:02:27.105Z,2.20
2023-03-21T12:05:20.027Z,2.40
2023-03-21T12:07:55.979Z,2.00
2023-03-21T12:10:41.460Z,2.10
2023-03-21T12:13:31.033Z,1.90
2023-03-21T12:16:48.202Z,2.20
2023-03-21T12:19:29.698Z,2.07
2023-03-21T12:22:27.063Z,1.90
2023-03-21T12:25:01.000Z,2.00
2023-03-21T12:27:51.061Z,2.17
2023-03-21T12:30:47.142Z,2.07
2023-03-21T12:33:32.575Z,2.10
2023-03-21T12:36:32.826Z,2.30
2023-03-21T12:39:14.804Z,1.80
2023-03-21T12:41:57.519Z,1.73
2023-03-21T12:44:29.205Z,2.23
2023-03-21T12:47:01.620Z,2.40
2023-03-21T12:50:01.725Z,2.20
2023-03-21T12:52:41.838Z,2.63
2023-03-21T12:55:27.913Z,1.27
2023-03-21T12:58:05.865Z,2.00
2023-03-21T13:00:44.023Z,2.10
2023-03-21T13:03:13.147Z,1.53
2023-03-21T13:05:51.853Z,1.30
2023-03-21T13:08:42.265Z,1.40
2023-03-21T13:11:16.577Z,1.60
2023-03-21T13:14:18.017Z,1.50
2023-03-21T13:17:10.839Z,1.43
2023-03-21T13:19:50.845Z,1.40
2023-03-21T13:22:28.129Z,1.40
2023-03-21T13:25:05.962Z,1.47
2023-03-21T13:27:33.264Z,1.50
2023-03-21T13:30:21.295Z,1.67
2023-03-21T13:32:55.434Z,1.20
2023-03-21T13:35:27.913Z,1.40
2023-03-21T13:38:22.816Z,1.50
2023-03-21T13:41:03.323Z,1.73
2023-03-21T13:43:43.772Z,1.57
2023-03-21T13:46:46.690Z,1.70
2023-03-21T13:49:28.451Z,1.87
2023-03-21T13:51:58.554Z,1.57
2023-03-21T13:54:45.161Z,1.70
2023-03-21T13:57:30.610Z,1.63
2023-03-21T14:00:23.635Z,1.67
2023-03-21T14:02:57.278Z,1.50
2023-03-21T14:05:26.582Z,1.73
2023-03-21T14:08:06.118Z,1.87
2023-03-21T14:10:41.926Z,1.97
2023-03-21T14:13:16.263Z,1.70
2023-03-21T14:15:55.295Z,1.60
2023-03-21T14:18:28.475Z,2.03
2023-03-21T14:21:05.080Z,1.83
2023-03-21T14:23:32.362Z,1.90
2023-03-21T14:26:00.310Z,1.92
2023-03-21T14:28:30.284Z,1.80
2023-03-21T14:31:01.567Z,1.73
2023-03-21T14:33:32.680Z,1.50
2023-03-21T14:36:04.043Z,1.63
2023-03-21T14:38:37.677Z,1.65
2023-03-21T14:41:05.600Z,1.70
2023-03-21T14:43:34.363Z,1.45
2023-03-21T14:46:02.244Z,1.40
2023-03-21T14:48:35.102Z,1.73
2023-03-21T14:51:09.319Z,1.80
2023-03-21T14:53:40.012Z,1.80
2023-03-21T14:56:23.782Z,1.73
2023-03-21T14:58:52.170Z,1.70
2023-03-21T15:01:32.584Z,1.60
2023-03-21T15:04:01.327Z,1.77
2023-03-21T15:06:28.354Z,1.60
2023-03-21T15:08:57.843Z,1.67
2023-03-21T15:11:37.813Z,1.60
2023-03-21T15:14:24.945Z,1.70
2023-03-21T15:16:52.896Z,2.00
2023-03-21T15:19:28.149Z,1.90
2023-03-21T15:22:06.443Z,1.90
2023-03-21T15:24:39.747Z,1.63
2023-03-21T15:27:13.722Z,1.77
2023-03-21T15:29:42.909Z,1.70
2023-03-21T15:32:23.326Z,1.80
2023-03-21T15:34:52.312Z,1.80
2023-03-21T15:37:25.980Z,1.85
2023-03-21T15:39:54.537Z,1.53
2023-03-21T15:42:24.475Z,1.60
2023-03-21T15:44:55.308Z,1.70
2023-03-21T15:47:48.610Z,1.80
2023-03-21T15:50:29.644Z,1.63
2023-03-21T15:53:00.215Z,1.80
2023-03-21T15:55:49.908Z,1.57
2023-03-21T15:58:24.040Z,1.60
2023-03-21T16:00:55.965Z,1.60
2023-03-21T16:03:27.449Z,1.47
2023-03-21T16:06:15.499Z,1.40
2023-03-21T16:08:46.127Z,1.47
2023-03-21T16:11:23.344Z,1.60
2023-03-21T16:13:51.713Z,1.60
2023-03-21T16:16:26.139Z,1.60
2023-03-21T16:18:54.492Z,1.60
2023-03-21T16:21:24.018Z,1.57
2023-03-21T16:23:51.180Z,1.53
2023-03-21T16:26:23.887Z,1.40
2023-03-21T16:28:51.128Z,1.50
2023-03-21T16:31:23.632Z,1.70
2023-03-21T16:33:51.414Z,1.53
2023-03-21T16:36:29.961Z,1.43
2023-03-21T16:38:57.583Z,1.30
2023-03-21T16:41:26.348Z,1.40
2023-03-21T16:43:53.734Z,1.33
2023-03-21T16:46:22.452Z,1.30
2023-03-21T16:48:52.215Z,1.40
2023-03-21T16:51:27.154Z,1.40
2023-03-21T16:53:54.262Z,1.23
2023-03-21T16:56:23.094Z,1.27
2023-03-21T16:58:51.123Z,1.40
2023-03-21T17:01:20.352Z,1.23
2023-03-21T17:03:48.637Z,1.37
2023-03-21T17:06:24.511Z,1.30
2023-03-21T17:08:52.534Z,1.10
2023-03-21T17:11:22.076Z,1.40
2023-03-21T17:13:51.441Z,1.20
2023-03-21T17:16:26.561Z,1.20
2023-03-21T17:18:54.827Z,1.10
2023-03-21T17:21:24.214Z,1.40
2023-03-21T17:23:52.476Z,1.30
2023-03-21T17:26:23.642Z,1.20
2023-03-21T17:28:52.591Z,1.10
2023-03-21T17:31:23.110Z,1.50
2023-03-21T17:33:50.471Z,1.60
2023-03-21T17:36:28.215Z,1.40
2023-03-21T17:38:55.580Z,1.60
2023-03-21T17:41:22.951Z,1.50
2023-03-21T17:43:51.720Z,1.50
2023-03-21T17:46:22.419Z,1.43
2023-03-21T17:48:50.096Z,1.30
2023-03-21T17:51:17.798Z,1.37
2023-03-21T17:53:47.357Z,1.30
2023-03-21T17:56:16.711Z,1.23
2023-03-21T17:58:44.099Z,1.10
2023-03-21T18:01:11.508Z,1.30
2023-03-21T18:03:38.832Z,1.27
2023-03-21T18:06:07.510Z,1.37
2023-03-21T18:08:34.434Z,1.33
2023-03-21T18:11:01.455Z,1.30
2023-03-21T18:13:28.484Z,1.30
2023-03-21T18:15:56.379Z,1.10
2023-03-21T18:18:23.549Z,1.30
2023-03-21T18:20:52.985Z,1.43
2023-03-21T18:23:21.794Z,1.43
2023-03-21T18:25:49.582Z,1.20
2023-03-21T18:28:20.398Z,1.27
2023-03-21T18:33:45.106Z,1.30
2023-03-21T18:36:15.010Z,1.40
2023-03-21T18:38:42.661Z,1.30
2023-03-21T18:41:10.312Z,1.20
2023-03-21T18:46:25.702Z,1.23
2023-03-21T18:48:52.705Z,1.30
2023-03-21T18:51:19.854Z,1.30
2023-03-21T18:53:46.864Z,1.33
2023-03-21T18:56:56.188Z,1.20
2023-03-21T18:59:01.947Z,1.20
2023-03-21T19:01:29.110Z,1.50
2023-03-21T19:04:20.409Z,1.40
2023-03-21T19:06:47.943Z,1.40
2023-03-21T19:09:16.010Z,1.40
2023-03-21T19:11:45.654Z,1.30
2023-03-21T19:14:14.508Z,1.43
2023-03-21T19:17:15.027Z,1.60
2023-03-21T19:19:29.774Z,1.50
2023-03-21T19:21:57.332Z,1.53
2023-03-21T19:24:28.251Z,1.60
2023-03-21T19:26:55.872Z,1.50
2023-03-21T19:29:23.052Z,1.50
2023-03-21T19:31:51.214Z,1.67
2023-03-21T19:34:18.784Z,1.50
2023-03-21T19:36:51.516Z,1.53
2023-03-21T19:39:22.606Z,1.50
2023-03-21T19:41:51.052Z,1.50
2023-03-21T19:44:19.595Z,1.80
2023-03-21T19:46:48.425Z,1.87
2023-03-21T19:49:20.225Z,1.70
2023-03-21T19:51:48.132Z,1.70
2023-03-21T19:54:17.937Z,1.70
2023-03-21T19:56:47.565Z,1.60
2023-03-21T19:59:15.319Z,2.00
2023-03-21T20:01:43.315Z,1.53
2023-03-21T20:04:10.982Z,1.70
2023-03-21T20:06:38.700Z,1.53
2023-03-21T20:09:47.265Z,1.80
2023-03-21T20:11:53.478Z,1.80
2023-03-21T20:14:21.285Z,1.70
2023-03-21T20:16:48.412Z,1.60
2023-03-21T20:19:16.307Z,1.70
2023-03-21T20:21:50.773Z,1.80
2023-03-21T20:24:21.980Z,1.70
2023-03-21T20:26:53.522Z,1.83
2023-03-21T20:32:07.984Z,1.73
2023-03-21T20:34:36.795Z,1.73
2023-03-21T20:37:06.394Z,1.90
2023-03-21T20:39:33.555Z,2.00
2023-03-21T20:42:00.623Z,2.10
2023-03-21T20:44:51.877Z,1.70
2023-03-21T20:47:14.887Z,1.67
2023-03-21T20:49:41.956Z,1.70
2023-03-21T20:55:00.044Z,2.20
2023-03-21T20:57:27.372Z,1.80
2023-03-21T20:59:55.187Z,2.10
2023-03-21T21:02:22.761Z,1.90
2023-03-21T21:05:21.566Z,2.37
2023-03-21T21:07:37.095Z,1.90
2023-03-21T21:10:04.622Z,1.90
2023-03-21T21:12:31.676Z,2.10
2023-03-21T21:14:58.754Z,1.90
2023-03-21T21:18:04.090Z,1.80
2023-03-21T21:20:17.143Z,2.07
2023-03-21T21:22:59.030Z,2.10
2023-03-21T21:25:29.078Z,1.90
2023-03-21T21:27:56.210Z,2.13
2023-03-21T21:30:23.652Z,2.23
2023-03-21T21:32:50.686Z,3.17
2023-03-21T21:35:19.563Z,2.00
2023-03-21T21:37:46.603Z,2.77
2023-03-21T21:40:20.550Z,2.57
2023-03-21T21:42:47.838Z,3.50
2023-03-21T21:45:15.875Z,2.97
2023-03-21T21:47:45.119Z,2.30
2023-03-21T21:50:12.755Z,2.17
2023-03-21T21:52:43.629Z,2.57
2023-03-21T21:55:10.920Z,2.40
2023-03-21T21:57:39.805Z,2.70
2023-03-21T22:00:12.970Z,2.43
2023-03-21T22:02:43.029Z,2.63
2023-03-21T22:05:10.591Z,2.10
2023-03-21T22:07:38.102Z,2.33
2023-03-21T22:10:06.651Z,2.10
2023-03-21T22:12:33.777Z,2.17
2023-03-21T22:15:01.063Z,2.10
2023-03-21T22:17:28.092Z,2.00
2023-03-21T22:20:05.050Z,2.00
2023-03-21T22:22:39.087Z,1.90
2023-03-21T22:25:08.866Z,1.90
2023-03-21T22:27:36.186Z,2.00
2023-03-21T22:30:04.572Z,1.80
2023-03-21T22:32:32.320Z,2.30
2023-03-21T22:34:59.422Z,2.10
2023-03-21T22:37:28.009Z,1.90
2023-03-21T22:39:55.543Z,2.10
2023-03-21T22:42:22.514Z,2.10
2023-03-21T22:44:49.559Z,2.00
2023-03-21T22:47:16.668Z,1.80
2023-03-21T22:49:45.428Z,2.17
2023-03-21T22:52:13.088Z,1.80
2023-03-21T22:54:40.475Z,1.70
2023-03-21T22:57:08.738Z,2.03
2023-03-21T22:59:35.800Z,2.00
2023-03-21T23:02:02.847Z,2.00
2023-03-21T23:04:30.025Z,1.93
2023-03-21T23:06:57.388Z,1.90
2023-03-21T23:09:24.904Z,1.83
2023-03-21T23:11:51.917Z,1.83
2023-03-21T23:14:20.926Z,1.97
2023-03-21T23:16:50.672Z,2.23
2023-03-21T23:19:19.990Z,1.93
2023-03-21T23:21:47.829Z,2.10
2023-03-21T23:24:16.010Z,2.00
2023-03-21T23:26:43.046Z,2.03
2023-03-21T23:29:11.372Z,2.03
2023-03-21T23:31:38.701Z,1.93
2023-03-21T23:34:06.144Z,2.03
2023-03-21T23:36:33.236Z,2.07
2023-03-21T23:39:00.682Z,2.00
2023-03-21T23:41:27.762Z,1.80
2023-03-21T23:43:55.141Z,2.00
2023-03-21T23:46:22.157Z,2.40
2023-03-21T23:48:49.370Z,2.07
2023-03-21T23:51:17.771Z,2.10
2023-03-21T23:53:46.673Z,1.83
2023-03-21T23:56:21.908Z,2.03
2023-03-21T23:58:52.405Z,2.23
